Terminal Aerodrome Forecast
Issued by NWS

Home | Current Version | Previous Version | Text Only | Print | Product List | Glossary On
Versions: 1 2 3 4 5 6 7 8 9 10 11 12 13 14 15 16 17 18 19 20 21 22 23 24
000
FTUS45 KFGZ 051725
TAFPRC
TAF
KPRC 051725Z 0518/0618 28011KT P6SM SCT020 BKN040
     FM052000 29010KT P6SM VCSH SCT018 BKN025
      TEMPO 0520/0524 5SM -TSRA BR OVC025CB
     FM060200 VRB04KT P6SM SCT020 BKN030=

USA.gov is the U.S. government's official web portal to all federal, state and local government web resources and services.